27 febrero 2008

Dia de nieblas.

La niebla de esta mañana no me dejaba ver ni los coches de delante en la carretera del barnasud.Habia niebla muy densa hasta llegar al pueblo de Gava y asi ha seguido aunque ha dispersado bastante a lo largo del dia. Hoy he tenido aviso de 2h para volar a Zurich pero al final igual vamos mañana, o no.... nunca se sabe...



No estaba el horno para bollos para los compañeros que les tocase hacer la approach al aeropuerto ya que no ha sido cosa de poco rato , osea que las esperas y retrasos para todos seguro que han sido la tonica al menos de la mañana, acabo de ver 4 vuelos cancelados y otros tantos desviados.


Porcedimentos LVP (Low Visibility Procedures) hasta las 15:00 LT.


Los Metar y TAF a las 20:00 Zulu tampoco son para tirar cohetes:


METAR: LEBL 272000Z 00000KT 1200 R25R/P2000 R07L/P2000 R07R/P2000 R25L/P2000 BR BKN004 11/10 Q1021 NOSIGshort-TAF: LEBL 271700Z 271803 VRB02KT 3000 BR BKN005 TEMPO 0003 0800 BCFGlong-TAF: LEBL 271700Z 280024 VRB02KT 3000 BR FEW025 TEMPO 0012 0800 BCFG BKN008 PROB40 TEMPO 0206 0100 FG BKN008 BECMG 1113 21010KT TX12/19Z TN09/04Z

Por la tarde he pasado a ver a Joaquin de Ciclos Prieto, un crack !, he comprado algunas cosas para el cumpleaños del mes proximo de Hector. ( Hector : esto como si no lo hubieses leido...)

Al llegar a casa las zapatillas de correr se han aliado con mis piernas y me han sacado a correr.

1h 02min + 35min estiramientos.

Mañana y no hoy ,por fin podre estrenar mi nuevo casco. Que ganas.

Ahora a ver el Barça !

No hay comentarios: